Terminal Aerodrome Forecast
Issued by NWS Topeka, KS

Home | Current Version | Previous Version | Graphics & Text | Print | Product List | Glossary On
Versions: 1 2 3 4 5 6 7 8 9 10 11 12 13 14 15 16 17 18 19 20 21 22 23
000
FTUS43 KTOP 060300 AAA
TAFTOP
TAF AMD
KTOP 060308Z 0603/0624 13009KT P6SM VCSH SCT050 BKN120
     FM060400 15013KT P6SM -SHRA VCTS OVC050CB
      TEMPO 0608/0612 3SM SHRA BR BKN025
     FM061600 17015G22KT P6SM VCSH BKN025
     FM061800 16018G30KT P6SM SCT025 BKN050=

USA.gov is the U.S. government's official web portal to all federal, state and local government web resources and services.